createdAt,value
2018-11-21T00:00:22.850Z,1.80
2018-11-21T00:03:11.638Z,1.76
2018-11-21T00:06:00.811Z,1.68
2018-11-21T00:08:49.618Z,1.65
2018-11-21T00:11:38.389Z,1.54
2018-11-21T00:14:27.174Z,1.62
2018-11-21T00:17:15.969Z,-0.08
2018-11-21T00:20:05.549Z,1.63
2018-11-21T00:22:54.362Z,1.64
2018-11-21T00:25:43.167Z,1.53
2018-11-21T00:28:31.966Z,1.54
2018-11-21T00:31:20.748Z,1.49
2018-11-21T00:34:09.552Z,1.41
2018-11-21T00:36:58.322Z,1.39
2018-11-21T00:39:47.136Z,1.36
2018-11-21T00:42:35.922Z,0.46
2018-11-21T00:45:24.703Z,1.26
2018-11-21T00:48:13.503Z,1.25
2018-11-21T00:51:02.555Z,1.15
2018-11-21T00:53:51.358Z,1.04
2018-11-21T00:56:40.170Z,0.91
2018-11-21T00:59:28.972Z,0.84
2018-11-21T01:02:17.767Z,0.82
2018-11-21T01:05:07.169Z,0.76
2018-11-21T01:07:55.980Z,0.66
2018-11-21T01:11:03.728Z,0.67
2018-11-21T01:13:53.367Z,-0.46
2018-11-21T01:16:42.164Z,0.61
2018-11-21T01:19:31.026Z,0.54
2018-11-21T01:22:19.806Z,0.54
2018-11-21T01:25:08.805Z,0.47
2018-11-21T01:27:57.591Z,0.47
2018-11-21T01:30:46.362Z,-1.35
2018-11-21T01:33:35.193Z,0.53
2018-11-21T01:36:42.933Z,0.51
2018-11-21T01:39:31.732Z,0.48
2018-11-21T01:42:20.517Z,0.29
2018-11-21T01:45:09.621Z,0.09
2018-11-21T01:47:58.405Z,0.02
2018-11-21T01:50:47.213Z,-0.12
2018-11-21T01:53:36.089Z,-1.55
2018-11-21T01:56:24.925Z,0.01
2018-11-21T01:59:13.787Z,0.00
2018-11-21T02:02:02.575Z,-0.11
2018-11-21T02:04:51.721Z,-0.05
2018-11-21T02:07:40.994Z,-0.05
2018-11-21T02:10:29.761Z,-0.12
2018-11-21T02:13:18.868Z,-0.38
2018-11-21T02:16:07.744Z,-0.23
2018-11-21T02:18:56.531Z,-0.24
2018-11-21T02:21:45.332Z,-0.22
2018-11-21T02:24:34.176Z,-0.27
2018-11-21T02:27:23.386Z,-0.38
2018-11-21T02:30:12.196Z,-0.59
2018-11-21T02:33:01.329Z,-0.67
2018-11-21T02:35:50.497Z,-0.69
2018-11-21T02:38:39.358Z,-0.56
2018-11-21T02:41:28.170Z,-0.45
2018-11-21T02:44:16.958Z,-0.47
2018-11-21T02:47:05.803Z,-0.61
2018-11-21T02:49:54.609Z,-0.56
2018-11-21T02:52:43.385Z,-0.40
2018-11-21T02:55:32.539Z,-0.25
2018-11-21T02:58:21.327Z,-0.16
2018-11-21T03:01:10.446Z,-0.04
2018-11-21T03:03:59.528Z,-0.15
2018-11-21T03:06:48.608Z,-0.21
2018-11-21T03:09:37.773Z,-0.29
2018-11-21T03:12:26.974Z,-0.39
2018-11-21T03:15:15.742Z,0.02
2018-11-21T03:18:05.149Z,0.19
2018-11-21T03:20:53.933Z,0.31
2018-11-21T03:23:42.729Z,0.45
2018-11-21T03:26:31.506Z,-0.94
2018-11-21T03:29:20.390Z,0.57
2018-11-21T03:32:09.176Z,0.58
2018-11-21T03:34:57.966Z,0.64
2018-11-21T03:37:46.738Z,0.72
2018-11-21T03:40:35.548Z,0.79
2018-11-21T03:43:24.321Z,0.78
2018-11-21T03:46:13.309Z,0.75
2018-11-21T03:49:02.347Z,0.73
2018-11-21T03:51:51.309Z,0.71
2018-11-21T03:54:40.403Z,0.77
2018-11-21T03:57:29.373Z,0.72
2018-11-21T04:00:18.354Z,0.70
2018-11-21T04:03:07.306Z,0.77
2018-11-21T04:05:56.100Z,0.83
2018-11-21T04:08:45.169Z,0.85
2018-11-21T04:11:33.955Z,-0.01
2018-11-21T04:14:22.746Z,0.91
2018-11-21T04:17:11.524Z,0.95
2018-11-21T04:20:19.282Z,1.03
2018-11-21T04:23:08.066Z,1.02
2018-11-21T04:25:56.856Z,1.01
2018-11-21T04:28:45.797Z,1.09
2018-11-21T04:31:34.587Z,1.04
2018-11-21T04:34:23.657Z,1.09
2018-11-21T04:37:12.446Z,1.09
2018-11-21T04:40:01.246Z,1.09
2018-11-21T04:42:50.425Z,1.09
2018-11-21T04:45:39.507Z,1.03
2018-11-21T04:48:28.562Z,0.98
2018-11-21T04:51:17.337Z,1.02
2018-11-21T04:54:06.467Z,1.04
2018-11-21T04:56:55.235Z,1.05
2018-11-21T04:59:44.271Z,1.09
2018-11-21T05:02:33.083Z,1.04
2018-11-21T05:05:21.812Z,1.02
2018-11-21T05:08:10.890Z,0.26
2018-11-21T05:10:59.682Z,0.47
2018-11-21T05:13:48.481Z,1.10
2018-11-21T05:16:37.532Z,1.04
2018-11-21T05:19:26.290Z,1.16
2018-11-21T05:22:15.131Z,-0.73
2018-11-21T05:25:03.974Z,1.31
2018-11-21T05:27:53.123Z,1.34
2018-11-21T05:30:42.199Z,1.30
2018-11-21T05:33:31.005Z,1.38
2018-11-21T05:36:19.775Z,1.48
2018-11-21T05:39:10.473Z,1.41
2018-11-21T05:41:59.268Z,1.45
2018-11-21T05:44:48.026Z,1.49
2018-11-21T05:47:36.823Z,1.52
2018-11-21T05:50:25.908Z,1.55
2018-11-21T05:53:15.026Z,1.60
2018-11-21T05:56:03.793Z,1.59
2018-11-21T05:58:52.583Z,1.62
2018-11-21T06:01:41.338Z,1.65
2018-11-21T06:04:30.125Z,-0.12
2018-11-21T06:07:19.211Z,1.69
2018-11-21T06:10:27.385Z,1.71
2018-11-21T06:13:16.173Z,1.74
2018-11-21T06:16:05.339Z,-0.11
2018-11-21T06:18:54.173Z,1.67
2018-11-21T06:21:42.939Z,1.72
2018-11-21T06:24:31.733Z,1.74
2018-11-21T06:27:20.522Z,1.68
2018-11-21T06:30:10.928Z,1.76
2018-11-21T06:33:00.054Z,1.77
2018-11-21T06:35:48.856Z,0.22
2018-11-21T06:38:37.957Z,1.73
2018-11-21T06:41:26.757Z,1.80
2018-11-21T06:44:15.852Z,1.82
2018-11-21T06:47:04.651Z,1.84
2018-11-21T06:49:53.439Z,1.79
2018-11-21T06:52:42.550Z,1.74
2018-11-21T06:55:31.329Z,1.47
2018-11-21T06:58:20.172Z,1.70
2018-11-21T07:01:08.969Z,1.71
2018-11-21T07:03:57.753Z,1.74
2018-11-21T07:06:46.512Z,1.71
2018-11-21T07:09:35.337Z,0.38
2018-11-21T07:12:24.542Z,1.80
2018-11-21T07:15:13.331Z,1.77
2018-11-21T07:18:02.108Z,1.49
2018-11-21T07:20:50.904Z,1.76
2018-11-21T07:23:39.676Z,1.81
2018-11-21T07:26:28.823Z,0.28
2018-11-21T07:29:17.887Z,1.79
2018-11-21T07:32:06.767Z,1.82
2018-11-21T07:34:55.793Z,1.82
2018-11-21T07:37:44.859Z,1.89
2018-11-21T07:40:33.948Z,1.91
2018-11-21T07:43:22.736Z,-0.01
2018-11-21T07:46:11.788Z,0.08
2018-11-21T07:49:00.802Z,2.08
2018-11-21T07:51:49.821Z,2.04
2018-11-21T07:54:38.873Z,2.06
2018-11-21T07:58:06.098Z,2.13
2018-11-21T08:01:33.341Z,2.13
2018-11-21T08:04:41.273Z,2.22
2018-11-21T08:07:49.041Z,2.21
2018-11-21T08:10:56.836Z,2.21
2018-11-21T08:13:55.257Z,2.25
2018-11-21T08:17:03.019Z,2.39
2018-11-21T08:20:10.815Z,1.54
2018-11-21T08:23:18.880Z,2.32
2018-11-21T08:26:26.616Z,2.34
2018-11-21T08:29:08.427Z,2.36
2018-11-21T08:31:57.195Z,2.39
2018-11-21T08:34:46.354Z,2.41
2018-11-21T08:37:35.124Z,2.49
2018-11-21T08:40:24.290Z,2.50
2018-11-21T08:43:13.079Z,2.49
2018-11-21T08:46:01.884Z,2.58
2018-11-21T08:48:50.661Z,2.61
2018-11-21T08:51:39.424Z,2.62
2018-11-21T08:54:28.223Z,2.74
2018-11-21T08:57:16.979Z,2.81
2018-11-21T09:00:07.202Z,2.79
2018-11-21T09:02:56.026Z,2.75
2018-11-21T09:05:44.811Z,2.85
2018-11-21T09:08:33.570Z,2.95
2018-11-21T09:11:22.759Z,2.97
2018-11-21T09:14:11.542Z,2.99
2018-11-21T09:17:00.340Z,2.94
2018-11-21T09:19:49.121Z,2.99
2018-11-21T09:22:37.987Z,3.06
2018-11-21T09:25:27.060Z,3.10
2018-11-21T09:28:15.833Z,3.01
2018-11-21T09:31:04.787Z,3.02
2018-11-21T09:33:54.182Z,1.77
2018-11-21T09:36:42.940Z,3.08
2018-11-21T09:39:31.736Z,1.75
2018-11-21T09:42:20.738Z,1.51
2018-11-21T09:45:11.468Z,3.21
2018-11-21T09:48:00.239Z,3.25
2018-11-21T09:50:49.057Z,1.35
2018-11-21T09:53:37.841Z,3.14
2018-11-21T09:56:26.633Z,3.08
2018-11-21T09:59:15.414Z,3.17
2018-11-21T10:02:42.913Z,3.27
2018-11-21T10:05:31.676Z,3.24
2018-11-21T10:08:44.180Z,3.31
2018-11-21T10:11:33.831Z,3.34
2018-11-21T10:14:22.625Z,3.45
2018-11-21T10:17:11.435Z,3.42
2018-11-21T10:20:00.216Z,3.44
2018-11-21T10:22:49.301Z,3.46
2018-11-21T10:25:38.056Z,3.43
2018-11-21T10:28:26.871Z,3.39
2018-11-21T10:31:16.405Z,3.45
2018-11-21T10:34:05.241Z,3.35
2018-11-21T10:36:54.083Z,3.17
2018-11-21T10:39:42.936Z,1.61
2018-11-21T10:42:31.727Z,1.52
2018-11-21T10:45:20.507Z,3.28
2018-11-21T10:48:09.610Z,3.33
2018-11-21T10:50:58.410Z,3.37
2018-11-21T10:53:47.203Z,3.38
2018-11-21T10:56:36.287Z,3.34
2018-11-21T10:59:25.124Z,3.41
2018-11-21T11:02:33.182Z,3.53
2018-11-21T11:05:41.029Z,3.50
2018-11-21T11:08:48.797Z,3.13
2018-11-21T11:11:56.578Z,3.42
2018-11-21T11:15:04.336Z,1.50
2018-11-21T11:18:05.345Z,3.39
2018-11-21T11:21:13.096Z,3.32
2018-11-21T11:24:20.855Z,3.32
2018-11-21T11:27:28.612Z,3.25
2018-11-21T11:30:36.660Z,3.21
2018-11-21T11:33:44.394Z,3.18
2018-11-21T11:36:52.159Z,3.23
2018-11-21T11:39:59.920Z,3.17
2018-11-21T11:43:07.683Z,3.04
2018-11-21T11:46:15.456Z,3.11
2018-11-21T11:49:23.245Z,3.12
2018-11-21T11:52:31.066Z,3.19
2018-11-21T11:55:38.831Z,2.57
2018-11-21T11:58:46.573Z,2.97
2018-11-21T12:01:54.327Z,2.80
2018-11-21T12:05:02.071Z,2.76
2018-11-21T12:08:09.825Z,2.82
2018-11-21T12:11:17.577Z,2.93
2018-11-21T12:14:25.998Z,2.96
2018-11-21T12:17:33.793Z,3.04
2018-11-21T12:20:41.576Z,1.51
2018-11-21T12:23:49.346Z,3.12
2018-11-21T12:26:57.120Z,3.12
2018-11-21T12:30:04.911Z,3.20
2018-11-21T12:33:12.679Z,1.68
2018-11-21T12:36:20.448Z,1.39
2018-11-21T12:39:29.017Z,3.03
2018-11-21T12:42:37.142Z,2.93
2018-11-21T12:45:44.893Z,2.92
2018-11-21T12:48:52.649Z,2.41
2018-11-21T12:52:00.413Z,3.04
2018-11-21T12:55:08.188Z,3.01
2018-11-21T12:58:06.633Z,3.11
2018-11-21T13:01:14.404Z,3.10
2018-11-21T13:04:22.138Z,3.15
2018-11-21T13:07:29.945Z,3.11
2018-11-21T13:10:37.678Z,2.99
2018-11-21T13:13:45.437Z,2.95
2018-11-21T13:16:53.184Z,2.99
2018-11-21T13:20:00.984Z,2.92
2018-11-21T13:23:08.727Z,2.90
2018-11-21T13:26:16.507Z,2.69
2018-11-21T13:29:24.579Z,2.87
2018-11-21T13:32:32.340Z,2.86
2018-11-21T13:35:40.108Z,2.85
2018-11-21T13:38:47.976Z,2.93
2018-11-21T13:41:55.715Z,3.00
2018-11-21T13:45:03.476Z,1.69
2018-11-21T13:48:11.234Z,3.04
2018-11-21T13:51:18.971Z,3.06
2018-11-21T13:54:26.789Z,2.95
2018-11-21T13:57:15.552Z,2.97
2018-11-21T14:00:04.788Z,3.01
2018-11-21T14:02:53.572Z,3.05
2018-11-21T14:05:42.552Z,3.00
2018-11-21T14:08:31.688Z,2.96
2018-11-21T14:11:20.491Z,2.16
2018-11-21T14:14:10.051Z,2.97
2018-11-21T14:16:58.826Z,2.94
2018-11-21T14:19:47.580Z,2.86
2018-11-21T14:22:36.353Z,2.71
2018-11-21T14:25:25.135Z,2.58
2018-11-21T14:28:14.273Z,2.80
2018-11-21T14:31:03.053Z,2.83
2018-11-21T14:33:51.857Z,2.76
2018-11-21T14:36:40.926Z,2.78
2018-11-21T14:39:30.056Z,2.46
2018-11-21T14:42:18.833Z,2.66
2018-11-21T14:45:10.023Z,2.67
2018-11-21T14:47:58.802Z,2.75
2018-11-21T14:50:47.587Z,2.78
2018-11-21T14:53:36.754Z,2.82
2018-11-21T14:56:29.424Z,2.76
2018-11-21T14:59:14.309Z,2.75
2018-11-21T15:02:03.107Z,2.65
2018-11-21T15:04:51.905Z,2.77
2018-11-21T15:07:41.479Z,2.78
2018-11-21T15:10:30.314Z,2.80
2018-11-21T15:13:19.080Z,2.75
2018-11-21T15:16:07.883Z,2.73
2018-11-21T15:18:56.677Z,2.88
2018-11-21T15:21:45.871Z,2.90
2018-11-21T15:24:34.639Z,2.90
2018-11-21T15:27:23.437Z,2.92
2018-11-21T15:30:15.055Z,2.88
2018-11-21T15:33:04.156Z,2.80
2018-11-21T15:35:53.311Z,2.84
2018-11-21T15:38:42.076Z,2.77
2018-11-21T15:41:30.918Z,2.62
2018-11-21T15:44:19.697Z,2.58
2018-11-21T15:47:08.524Z,2.48
2018-11-21T15:49:57.304Z,2.44
2018-11-21T15:52:52.757Z,0.82
2018-11-21T15:55:34.904Z,2.38
2018-11-21T15:58:23.702Z,2.44
2018-11-21T16:01:12.482Z,2.36
2018-11-21T16:04:01.287Z,2.28
2018-11-21T16:06:50.076Z,2.33
2018-11-21T16:09:39.271Z,2.33
2018-11-21T16:12:28.046Z,2.28
2018-11-21T16:15:19.688Z,2.33
2018-11-21T16:18:08.469Z,2.36
2018-11-21T16:20:57.272Z,2.36
2018-11-21T16:23:46.392Z,2.35
2018-11-21T16:26:35.227Z,2.36
2018-11-21T16:29:24.058Z,2.38
2018-11-21T16:32:13.250Z,2.39
2018-11-21T16:35:02.548Z,2.37
2018-11-21T16:38:10.194Z,1.03
2018-11-21T16:40:59.408Z,2.36
2018-11-21T16:43:48.241Z,2.26
2018-11-21T16:46:37.045Z,2.29
2018-11-21T16:49:26.182Z,2.31
2018-11-21T16:52:15.297Z,2.31
2018-11-21T16:55:04.092Z,2.34
2018-11-21T16:57:53.668Z,0.64
2018-11-21T17:00:42.464Z,2.30
2018-11-21T17:03:31.254Z,2.31
2018-11-21T17:06:20.057Z,2.36
2018-11-21T17:09:10.850Z,2.39
2018-11-21T17:11:59.663Z,2.39
2018-11-21T17:14:48.446Z,0.63
2018-11-21T17:17:37.635Z,2.38
2018-11-21T17:20:28.322Z,2.41
2018-11-21T17:23:17.104Z,2.19
2018-11-21T17:26:06.125Z,2.42
2018-11-21T17:28:54.923Z,0.81
2018-11-21T17:31:43.993Z,2.47
2018-11-21T17:34:33.120Z,2.48
2018-11-21T17:37:22.274Z,2.42
2018-11-21T17:40:32.351Z,2.37
2018-11-21T17:43:21.139Z,2.28
2018-11-21T17:46:10.607Z,0.83
2018-11-21T17:48:52.305Z,2.39
2018-11-21T17:51:41.063Z,1.27
2018-11-21T17:54:30.174Z,2.46
2018-11-21T17:57:19.298Z,2.23
2018-11-21T18:00:31.001Z,2.46
2018-11-21T18:03:19.785Z,2.51
2018-11-21T18:06:08.576Z,2.50
2018-11-21T18:08:57.374Z,2.51
2018-11-21T18:11:46.470Z,1.14
2018-11-21T18:14:35.271Z,2.49
2018-11-21T18:17:24.033Z,2.41
2018-11-21T18:20:13.611Z,2.36
2018-11-21T18:23:02.381Z,0.68
2018-11-21T18:25:51.208Z,1.91
2018-11-21T18:28:40.004Z,2.26
2018-11-21T18:31:28.824Z,2.23
2018-11-21T18:34:17.605Z,2.22
2018-11-21T18:37:06.658Z,0.54
2018-11-21T18:39:55.491Z,2.21
2018-11-21T18:42:44.379Z,1.63
2018-11-21T18:45:35.870Z,1.98
2018-11-21T18:48:25.002Z,0.62
2018-11-21T18:51:13.802Z,2.27
2018-11-21T18:54:02.603Z,2.22
2018-11-21T18:57:13.761Z,2.22
2018-11-21T19:00:25.617Z,2.29
2018-11-21T19:03:14.404Z,2.32
2018-11-21T19:06:03.197Z,2.33
2018-11-21T19:08:52.006Z,0.97
2018-11-21T19:11:41.106Z,2.38
2018-11-21T19:14:29.967Z,1.77
2018-11-21T19:17:18.742Z,2.40
2018-11-21T19:20:10.893Z,2.45
2018-11-21T19:23:00.060Z,2.43
2018-11-21T19:25:48.869Z,2.35
2018-11-21T19:28:37.999Z,2.44
2018-11-21T19:31:29.741Z,2.39
2018-11-21T19:34:16.072Z,2.36
2018-11-21T19:37:05.592Z,2.37
2018-11-21T19:39:54.533Z,2.32
2018-11-21T19:43:02.358Z,2.36
2018-11-21T19:46:10.207Z,2.37
2018-11-21T19:48:59.305Z,2.39
2018-11-21T19:51:48.409Z,1.70
2018-11-21T19:54:38.616Z,2.37
2018-11-21T19:57:46.921Z,2.38
2018-11-21T20:00:55.434Z,2.34
2018-11-21T20:03:45.911Z,2.38
2018-11-21T20:06:35.784Z,2.29
2018-11-21T20:09:44.704Z,2.34
2018-11-21T20:12:39.713Z,2.39
2018-11-21T20:15:24.424Z,2.36
2018-11-21T20:18:14.135Z,2.35
2018-11-21T20:21:03.140Z,2.35
2018-11-21T20:23:52.741Z,2.40
2018-11-21T20:26:41.643Z,2.42
2018-11-21T20:29:31.294Z,1.73
2018-11-21T20:32:20.841Z,2.32
2018-11-21T20:35:11.571Z,2.29
2018-11-21T20:38:00.538Z,2.28
2018-11-21T20:40:49.507Z,2.22
2018-11-21T20:43:39.146Z,2.25
2018-11-21T20:46:29.548Z,2.22
2018-11-21T20:49:38.301Z,2.25
2018-11-21T20:52:27.754Z,2.28
2018-11-21T20:55:18.006Z,1.78
2018-11-21T20:58:07.056Z,2.33
2018-11-21T21:00:56.042Z,2.25
2018-11-21T21:03:44.854Z,2.21
2018-11-21T21:06:52.698Z,2.17
2018-11-21T21:10:00.531Z,2.22
2018-11-21T21:12:49.337Z,2.21
2018-11-21T21:15:38.205Z,2.27
2018-11-21T21:18:27.067Z,2.23
2018-11-21T21:21:15.999Z,2.24
2018-11-21T21:24:23.828Z,2.25
2018-11-21T21:27:12.690Z,2.21
2018-11-21T21:30:01.478Z,2.21
2018-11-21T21:32:50.374Z,2.22
2018-11-21T21:35:39.177Z,2.20
2018-11-21T21:38:27.983Z,2.18
2018-11-21T21:41:16.748Z,2.22
2018-11-21T21:44:05.677Z,0.65
2018-11-21T21:46:54.479Z,2.22
2018-11-21T21:49:43.264Z,2.25
2018-11-21T21:52:32.643Z,2.21
2018-11-21T21:55:22.571Z,2.15
2018-11-21T21:58:11.334Z,2.23
2018-11-21T22:01:00.145Z,2.26
2018-11-21T22:03:48.930Z,2.15
2018-11-21T22:06:56.833Z,2.23
2018-11-21T22:12:35.225Z,0.36
2018-11-21T22:15:43.062Z,2.12
2018-11-21T22:18:50.830Z,2.11
2018-11-21T22:21:39.622Z,2.13
2018-11-21T22:24:28.421Z,2.11
2018-11-21T22:27:17.480Z,2.14
2018-11-21T22:30:08.224Z,2.11
2018-11-21T22:32:58.051Z,2.05
2018-11-21T22:35:47.180Z,2.18
2018-11-21T22:38:36.346Z,2.10
2018-11-21T22:41:25.123Z,2.14
2018-11-21T22:44:13.903Z,2.17
2018-11-21T22:47:03.044Z,2.19
2018-11-21T22:49:51.831Z,0.48
2018-11-21T22:52:40.703Z,2.23
2018-11-21T22:55:29.490Z,2.15
2018-11-21T22:58:18.319Z,2.11
2018-11-21T23:01:07.089Z,2.18
2018-11-21T23:03:56.219Z,2.15
2018-11-21T23:06:45.320Z,2.22
2018-11-21T23:09:34.448Z,0.36
2018-11-21T23:12:23.218Z,2.15
2018-11-21T23:15:12.777Z,2.13
2018-11-21T23:18:01.599Z,2.18
2018-11-21T23:20:50.392Z,2.22
2018-11-21T23:23:39.167Z,2.20
2018-11-21T23:26:27.967Z,2.26
2018-11-21T23:29:16.753Z,2.19
2018-11-21T23:32:05.763Z,2.17
2018-11-21T23:34:54.560Z,0.54
2018-11-21T23:37:43.346Z,2.21
2018-11-21T23:40:32.119Z,2.18
2018-11-21T23:43:20.980Z,2.20
2018-11-21T23:46:29.024Z,2.17
2018-11-21T23:49:17.832Z,2.15
2018-11-21T23:52:25.593Z,2.13
2018-11-21T23:55:16.667Z,2.12
2018-11-21T23:58:05.615Z,2.12
